sensor_id;sensor_type;location;lat;lon;timestamp;P1;durP1;ratioP1;P2;durP2;ratioP2
37087;SDS011;23002;52.676;6.432;2024-03-08T00:00:46;25.98;;;12.15;;
37087;SDS011;23002;52.676;6.432;2024-03-08T00:03:14;25.33;;;11.07;;
37087;SDS011;23002;52.676;6.432;2024-03-08T00:05:41;28.98;;;12.15;;
37087;SDS011;23002;52.676;6.432;2024-03-08T00:08:09;26.60;;;10.88;;
37087;SDS011;23002;52.676;6.432;2024-03-08T00:10:36;29.70;;;12.55;;
37087;SDS011;23002;52.676;6.432;2024-03-08T00:13:05;26.73;;;12.02;;
37087;SDS011;23002;52.676;6.432;2024-03-08T00:15:33;27.98;;;11.77;;
37087;SDS011;23002;52.676;6.432;2024-03-08T00:18:01;30.08;;;11.23;;
37087;SDS011;23002;52.676;6.432;2024-03-08T00:20:28;28.13;;;11.35;;
37087;SDS011;23002;52.676;6.432;2024-03-08T00:22:56;30.00;;;12.13;;
37087;SDS011;23002;52.676;6.432;2024-03-08T00:25:24;24.08;;;10.75;;
37087;SDS011;23002;52.676;6.432;2024-03-08T00:27:51;26.60;;;11.98;;
37087;SDS011;23002;52.676;6.432;2024-03-08T00:30:22;26.83;;;11.82;;
37087;SDS011;23002;52.676;6.432;2024-03-08T00:32:51;32.35;;;13.27;;
37087;SDS011;23002;52.676;6.432;2024-03-08T00:35:19;26.15;;;11.27;;
37087;SDS011;23002;52.676;6.432;2024-03-08T00:37:46;27.92;;;12.65;;
37087;SDS011;23002;52.676;6.432;2024-03-08T00:40:13;30.13;;;12.75;;
37087;SDS011;23002;52.676;6.432;2024-03-08T00:42:41;29.05;;;11.35;;
37087;SDS011;23002;52.676;6.432;2024-03-08T00:45:10;29.42;;;12.18;;
37087;SDS011;23002;52.676;6.432;2024-03-08T00:47:38;31.40;;;13.02;;
37087;SDS011;23002;52.676;6.432;2024-03-08T00:50:05;24.45;;;11.85;;
37087;SDS011;23002;52.676;6.432;2024-03-08T00:52:35;30.98;;;12.75;;
37087;SDS011;23002;52.676;6.432;2024-03-08T00:55:02;36.58;;;14.32;;
37087;SDS011;23002;52.676;6.432;2024-03-08T00:57:29;26.90;;;12.55;;
37087;SDS011;23002;52.676;6.432;2024-03-08T00:59:57;24.52;;;11.98;;
37087;SDS011;23002;52.676;6.432;2024-03-08T01:02:24;32.78;;;12.80;;
37087;SDS011;23002;52.676;6.432;2024-03-08T01:04:51;32.53;;;11.85;;
37087;SDS011;23002;52.676;6.432;2024-03-08T01:07:19;31.73;;;13.90;;
37087;SDS011;23002;52.676;6.432;2024-03-08T01:09:47;27.30;;;11.68;;
37087;SDS011;23002;52.676;6.432;2024-03-08T01:12:14;31.08;;;12.77;;
37087;SDS011;23002;52.676;6.432;2024-03-08T01:14:42;24.63;;;11.32;;
37087;SDS011;23002;52.676;6.432;2024-03-08T01:17:09;27.35;;;11.48;;
37087;SDS011;23002;52.676;6.432;2024-03-08T01:19:38;28.15;;;12.02;;
37087;SDS011;23002;52.676;6.432;2024-03-08T01:22:05;28.40;;;12.18;;
37087;SDS011;23002;52.676;6.432;2024-03-08T01:24:33;26.90;;;12.68;;
37087;SDS011;23002;52.676;6.432;2024-03-08T01:27:01;26.35;;;11.13;;
37087;SDS011;23002;52.676;6.432;2024-03-08T01:29:29;29.75;;;13.60;;
37087;SDS011;23002;52.676;6.432;2024-03-08T01:31:56;25.45;;;10.98;;
37087;SDS011;23002;52.676;6.432;2024-03-08T01:34:23;31.35;;;12.70;;
37087;SDS011;23002;52.676;6.432;2024-03-08T01:36:50;27.67;;;12.13;;
37087;SDS011;23002;52.676;6.432;2024-03-08T01:39:18;28.08;;;11.23;;
37087;SDS011;23002;52.676;6.432;2024-03-08T01:41:45;29.33;;;12.68;;
37087;SDS011;23002;52.676;6.432;2024-03-08T01:44:12;23.02;;;10.85;;
37087;SDS011;23002;52.676;6.432;2024-03-08T01:46:44;33.37;;;13.10;;
37087;SDS011;23002;52.676;6.432;2024-03-08T01:49:11;27.73;;;12.55;;
37087;SDS011;23002;52.676;6.432;2024-03-08T01:51:40;25.58;;;12.50;;
37087;SDS011;23002;52.676;6.432;2024-03-08T01:54:07;27.67;;;12.57;;
37087;SDS011;23002;52.676;6.432;2024-03-08T01:59:07;27.35;;;11.05;;
37087;SDS011;23002;52.676;6.432;2024-03-08T02:01:34;29.23;;;12.57;;
37087;SDS011;23002;52.676;6.432;2024-03-08T02:04:01;27.60;;;11.05;;
37087;SDS011;23002;52.676;6.432;2024-03-08T02:06:29;29.85;;;11.65;;
37087;SDS011;23002;52.676;6.432;2024-03-08T02:08:56;24.88;;;11.30;;
37087;SDS011;23002;52.676;6.432;2024-03-08T02:11:24;29.70;;;12.35;;
37087;SDS011;23002;52.676;6.432;2024-03-08T02:13:51;29.13;;;11.68;;
37087;SDS011;23002;52.676;6.432;2024-03-08T02:16:21;24.98;;;12.02;;
37087;SDS011;23002;52.676;6.432;2024-03-08T02:18:49;31.58;;;12.45;;
37087;SDS011;23002;52.676;6.432;2024-03-08T02:21:17;30.70;;;12.60;;
37087;SDS011;23002;52.676;6.432;2024-03-08T02:23:45;29.35;;;12.38;;
37087;SDS011;23002;52.676;6.432;2024-03-08T02:26:13;26.30;;;12.80;;
37087;SDS011;23002;52.676;6.432;2024-03-08T02:28:40;27.65;;;12.10;;
37087;SDS011;23002;52.676;6.432;2024-03-08T02:31:10;28.02;;;12.05;;
37087;SDS011;23002;52.676;6.432;2024-03-08T02:33:37;25.20;;;12.25;;
37087;SDS011;23002;52.676;6.432;2024-03-08T02:36:05;29.95;;;12.32;;
37087;SDS011;23002;52.676;6.432;2024-03-08T02:38:33;29.45;;;13.35;;
37087;SDS011;23002;52.676;6.432;2024-03-08T02:41:00;34.90;;;13.63;;
37087;SDS011;23002;52.676;6.432;2024-03-08T02:43:27;27.15;;;12.18;;
37087;SDS011;23002;52.676;6.432;2024-03-08T02:45:54;27.75;;;12.45;;
37087;SDS011;23002;52.676;6.432;2024-03-08T02:48:22;30.23;;;12.73;;
37087;SDS011;23002;52.676;6.432;2024-03-08T02:50:52;25.98;;;12.50;;
37087;SDS011;23002;52.676;6.432;2024-03-08T02:53:20;29.65;;;13.23;;
37087;SDS011;23002;52.676;6.432;2024-03-08T02:55:48;31.90;;;14.27;;
37087;SDS011;23002;52.676;6.432;2024-03-08T02:58:16;27.02;;;11.73;;
37087;SDS011;23002;52.676;6.432;2024-03-08T03:00:43;31.70;;;13.40;;
37087;SDS011;23002;52.676;6.432;2024-03-08T03:03:11;26.23;;;12.48;;
37087;SDS011;23002;52.676;6.432;2024-03-08T03:05:38;30.60;;;12.82;;
37087;SDS011;23002;52.676;6.432;2024-03-08T03:08:12;31.70;;;12.75;;
37087;SDS011;23002;52.676;6.432;2024-03-08T03:10:41;32.42;;;13.57;;
37087;SDS011;23002;52.676;6.432;2024-03-08T03:13:09;24.65;;;11.25;;
37087;SDS011;23002;52.676;6.432;2024-03-08T03:15:36;26.83;;;12.23;;
37087;SDS011;23002;52.676;6.432;2024-03-08T03:18:03;32.38;;;13.70;;
37087;SDS011;23002;52.676;6.432;2024-03-08T03:20:34;37.35;;;13.88;;
37087;SDS011;23002;52.676;6.432;2024-03-08T03:23:08;28.65;;;12.20;;
37087;SDS011;23002;52.676;6.432;2024-03-08T03:25:35;29.85;;;12.48;;
37087;SDS011;23002;52.676;6.432;2024-03-08T03:28:05;33.05;;;13.98;;
37087;SDS011;23002;52.676;6.432;2024-03-08T03:30:34;36.53;;;13.73;;
37087;SDS011;23002;52.676;6.432;2024-03-08T03:33:01;27.77;;;13.07;;
37087;SDS011;23002;52.676;6.432;2024-03-08T03:35:34;38.63;;;15.55;;
37087;SDS011;23002;52.676;6.432;2024-03-08T03:38:03;33.10;;;13.15;;
37087;SDS011;23002;52.676;6.432;2024-03-08T03:40:37;28.23;;;13.02;;
37087;SDS011;23002;52.676;6.432;2024-03-08T03:43:04;31.75;;;13.00;;
37087;SDS011;23002;52.676;6.432;2024-03-08T03:45:31;32.22;;;13.68;;
37087;SDS011;23002;52.676;6.432;2024-03-08T03:48:07;27.92;;;12.18;;
37087;SDS011;23002;52.676;6.432;2024-03-08T03:50:38;26.45;;;12.18;;
37087;SDS011;23002;52.676;6.432;2024-03-08T03:53:06;33.25;;;14.45;;
37087;SDS011;23002;52.676;6.432;2024-03-08T03:55:34;28.23;;;13.23;;
37087;SDS011;23002;52.676;6.432;2024-03-08T03:58:03;29.63;;;12.45;;
37087;SDS011;23002;52.676;6.432;2024-03-08T04:00:30;31.17;;;14.25;;
37087;SDS011;23002;52.676;6.432;2024-03-08T04:02:59;32.17;;;15.02;;
37087;SDS011;23002;52.676;6.432;2024-03-08T04:05:28;31.20;;;13.52;;
37087;SDS011;23002;52.676;6.432;2024-03-08T04:07:56;30.08;;;13.68;;
37087;SDS011;23002;52.676;6.432;2024-03-08T04:10:23;33.55;;;12.52;;
37087;SDS011;23002;52.676;6.432;2024-03-08T04:12:50;27.67;;;13.38;;
37087;SDS011;23002;52.676;6.432;2024-03-08T04:15:18;29.77;;;11.75;;
37087;SDS011;23002;52.676;6.432;2024-03-08T04:17:47;26.23;;;13.13;;
37087;SDS011;23002;52.676;6.432;2024-03-08T04:20:14;29.23;;;12.88;;
37087;SDS011;23002;52.676;6.432;2024-03-08T04:22:44;30.23;;;13.57;;
37087;SDS011;23002;52.676;6.432;2024-03-08T04:25:16;32.05;;;13.98;;
37087;SDS011;23002;52.676;6.432;2024-03-08T04:27:43;27.33;;;11.95;;
37087;SDS011;23002;52.676;6.432;2024-03-08T04:30:11;32.58;;;14.13;;
37087;SDS011;23002;52.676;6.432;2024-03-08T04:32:39;27.75;;;12.98;;
37087;SDS011;23002;52.676;6.432;2024-03-08T04:35:08;27.45;;;12.52;;
37087;SDS011;23002;52.676;6.432;2024-03-08T04:37:35;28.60;;;12.02;;
37087;SDS011;23002;52.676;6.432;2024-03-08T04:40:03;31.23;;;13.82;;
37087;SDS011;23002;52.676;6.432;2024-03-08T04:42:30;26.48;;;12.27;;
37087;SDS011;23002;52.676;6.432;2024-03-08T04:45:01;30.00;;;13.32;;
37087;SDS011;23002;52.676;6.432;2024-03-08T04:47:28;30.88;;;13.60;;
37087;SDS011;23002;52.676;6.432;2024-03-08T04:49:56;26.73;;;12.88;;
37087;SDS011;23002;52.676;6.432;2024-03-08T04:52:27;33.33;;;14.63;;
37087;SDS011;23002;52.676;6.432;2024-03-08T04:54:54;22.75;;;12.25;;
37087;SDS011;23002;52.676;6.432;2024-03-08T04:57:22;24.30;;;11.30;;
37087;SDS011;23002;52.676;6.432;2024-03-08T04:59:49;27.77;;;13.15;;
37087;SDS011;23002;52.676;6.432;2024-03-08T05:02:17;34.63;;;14.05;;
37087;SDS011;23002;52.676;6.432;2024-03-08T05:04:44;32.13;;;15.18;;
37087;SDS011;23002;52.676;6.432;2024-03-08T05:07:11;33.60;;;15.45;;
37087;SDS011;23002;52.676;6.432;2024-03-08T05:09:38;33.25;;;12.65;;
37087;SDS011;23002;52.676;6.432;2024-03-08T05:12:07;30.33;;;13.95;;
37087;SDS011;23002;52.676;6.432;2024-03-08T05:14:34;30.52;;;12.80;;
37087;SDS011;23002;52.676;6.432;2024-03-08T05:17:02;32.78;;;13.85;;
37087;SDS011;23002;52.676;6.432;2024-03-08T05:19:29;26.17;;;12.13;;
37087;SDS011;23002;52.676;6.432;2024-03-08T05:22:00;30.98;;;14.73;;
37087;SDS011;23002;52.676;6.432;2024-03-08T05:24:28;26.08;;;13.35;;
37087;SDS011;23002;52.676;6.432;2024-03-08T05:26:56;29.83;;;13.13;;
37087;SDS011;23002;52.676;6.432;2024-03-08T05:29:26;35.33;;;16.25;;
37087;SDS011;23002;52.676;6.432;2024-03-08T05:31:54;31.80;;;13.68;;
37087;SDS011;23002;52.676;6.432;2024-03-08T05:34:21;27.75;;;13.45;;
37087;SDS011;23002;52.676;6.432;2024-03-08T05:36:49;33.55;;;13.55;;
37087;SDS011;23002;52.676;6.432;2024-03-08T05:41:48;26.35;;;11.30;;
37087;SDS011;23002;52.676;6.432;2024-03-08T05:44:17;31.40;;;13.57;;
37087;SDS011;23002;52.676;6.432;2024-03-08T05:46:44;29.30;;;13.73;;
37087;SDS011;23002;52.676;6.432;2024-03-08T05:49:13;30.17;;;13.10;;
37087;SDS011;23002;52.676;6.432;2024-03-08T05:51:41;29.80;;;13.70;;
37087;SDS011;23002;52.676;6.432;2024-03-08T05:54:12;32.65;;;14.40;;
37087;SDS011;23002;52.676;6.432;2024-03-08T05:56:43;26.67;;;12.90;;
37087;SDS011;23002;52.676;6.432;2024-03-08T05:59:11;27.08;;;12.27;;
37087;SDS011;23002;52.676;6.432;2024-03-08T06:01:39;33.85;;;13.82;;
37087;SDS011;23002;52.676;6.432;2024-03-08T06:04:08;34.13;;;15.05;;
37087;SDS011;23002;52.676;6.432;2024-03-08T06:06:38;34.25;;;14.55;;
37087;SDS011;23002;52.676;6.432;2024-03-08T06:09:06;36.22;;;14.27;;
37087;SDS011;23002;52.676;6.432;2024-03-08T06:11:44;34.83;;;13.93;;
37087;SDS011;23002;52.676;6.432;2024-03-08T06:14:11;32.78;;;14.38;;
37087;SDS011;23002;52.676;6.432;2024-03-08T06:16:39;42.53;;;14.82;;
37087;SDS011;23002;52.676;6.432;2024-03-08T06:19:06;34.53;;;16.17;;
37087;SDS011;23002;52.676;6.432;2024-03-08T06:21:34;28.75;;;14.40;;
37087;SDS011;23002;52.676;6.432;2024-03-08T06:24:01;31.63;;;13.75;;
37087;SDS011;23002;52.676;6.432;2024-03-08T06:26:29;34.90;;;14.73;;
37087;SDS011;23002;52.676;6.432;2024-03-08T06:28:57;29.92;;;12.70;;
37087;SDS011;23002;52.676;6.432;2024-03-08T06:31:25;33.13;;;14.63;;
37087;SDS011;23002;52.676;6.432;2024-03-08T06:33:52;33.97;;;15.18;;
37087;SDS011;23002;52.676;6.432;2024-03-08T06:36:24;34.83;;;15.00;;
37087;SDS011;23002;52.676;6.432;2024-03-08T06:38:51;26.70;;;11.98;;
37087;SDS011;23002;52.676;6.432;2024-03-08T06:41:19;34.22;;;13.95;;
37087;SDS011;23002;52.676;6.432;2024-03-08T06:43:47;43.25;;;15.60;;
37087;SDS011;23002;52.676;6.432;2024-03-08T06:46:15;29.55;;;13.20;;
37087;SDS011;23002;52.676;6.432;2024-03-08T06:48:43;28.75;;;14.98;;
37087;SDS011;23002;52.676;6.432;2024-03-08T06:51:12;33.38;;;15.43;;
37087;SDS011;23002;52.676;6.432;2024-03-08T06:53:40;34.47;;;14.70;;
37087;SDS011;23002;52.676;6.432;2024-03-08T06:56:08;29.40;;;13.05;;
37087;SDS011;23002;52.676;6.432;2024-03-08T06:58:35;31.10;;;14.27;;
37087;SDS011;23002;52.676;6.432;2024-03-08T07:01:03;30.55;;;14.65;;
37087;SDS011;23002;52.676;6.432;2024-03-08T07:03:34;35.15;;;14.55;;
37087;SDS011;23002;52.676;6.432;2024-03-08T07:06:01;29.40;;;13.25;;
37087;SDS011;23002;52.676;6.432;2024-03-08T07:08:30;31.95;;;14.70;;
37087;SDS011;23002;52.676;6.432;2024-03-08T07:10:57;29.40;;;12.38;;
37087;SDS011;23002;52.676;6.432;2024-03-08T07:13:26;29.88;;;13.50;;
37087;SDS011;23002;52.676;6.432;2024-03-08T07:15:56;24.95;;;11.68;;
37087;SDS011;23002;52.676;6.432;2024-03-08T07:18:26;26.25;;;12.85;;
37087;SDS011;23002;52.676;6.432;2024-03-08T07:20:54;29.63;;;13.30;;
37087;SDS011;23002;52.676;6.432;2024-03-08T07:23:21;29.35;;;12.98;;
37087;SDS011;23002;52.676;6.432;2024-03-08T07:26:07;30.80;;;14.40;;
37087;SDS011;23002;52.676;6.432;2024-03-08T07:28:34;32.53;;;14.35;;
37087;SDS011;23002;52.676;6.432;2024-03-08T07:31:02;29.63;;;14.27;;
37087;SDS011;23002;52.676;6.432;2024-03-08T07:33:38;30.95;;;13.18;;
37087;SDS011;23002;52.676;6.432;2024-03-08T07:36:06;31.65;;;14.43;;
37087;SDS011;23002;52.676;6.432;2024-03-08T07:38:33;30.35;;;14.48;;
37087;SDS011;23002;52.676;6.432;2024-03-08T07:41:01;27.92;;;13.57;;
37087;SDS011;23002;52.676;6.432;2024-03-08T07:43:31;28.15;;;13.38;;
37087;SDS011;23002;52.676;6.432;2024-03-08T07:45:59;29.52;;;12.73;;
37087;SDS011;23002;52.676;6.432;2024-03-08T07:48:26;28.58;;;13.35;;
37087;SDS011;23002;52.676;6.432;2024-03-08T07:50:54;27.45;;;13.40;;
37087;SDS011;23002;52.676;6.432;2024-03-08T07:53:22;26.35;;;11.95;;
37087;SDS011;23002;52.676;6.432;2024-03-08T07:55:53;24.75;;;12.70;;
37087;SDS011;23002;52.676;6.432;2024-03-08T07:58:20;24.77;;;13.05;;
37087;SDS011;23002;52.676;6.432;2024-03-08T08:00:48;24.63;;;11.98;;
37087;SDS011;23002;52.676;6.432;2024-03-08T08:03:15;22.90;;;12.30;;
37087;SDS011;23002;52.676;6.432;2024-03-08T08:05:47;25.63;;;13.13;;
37087;SDS011;23002;52.676;6.432;2024-03-08T08:08:15;27.17;;;12.40;;
37087;SDS011;23002;52.676;6.432;2024-03-08T08:10:43;20.83;;;11.80;;
37087;SDS011;23002;52.676;6.432;2024-03-08T08:13:10;23.38;;;12.32;;
37087;SDS011;23002;52.676;6.432;2024-03-08T08:15:39;21.50;;;11.93;;
37087;SDS011;23002;52.676;6.432;2024-03-08T08:18:06;20.77;;;12.00;;
37087;SDS011;23002;52.676;6.432;2024-03-08T08:20:36;22.85;;;11.48;;
37087;SDS011;23002;52.676;6.432;2024-03-08T08:23:03;20.80;;;11.23;;
37087;SDS011;23002;52.676;6.432;2024-03-08T08:25:31;24.20;;;11.20;;
37087;SDS011;23002;52.676;6.432;2024-03-08T08:28:01;20.83;;;12.05;;
37087;SDS011;23002;52.676;6.432;2024-03-08T08:30:30;20.73;;;12.13;;
37087;SDS011;23002;52.676;6.432;2024-03-08T08:32:59;22.30;;;11.77;;
37087;SDS011;23002;52.676;6.432;2024-03-08T08:35:27;22.88;;;11.80;;
37087;SDS011;23002;52.676;6.432;2024-03-08T08:37:55;25.70;;;12.90;;
37087;SDS011;23002;52.676;6.432;2024-03-08T08:40:25;21.98;;;12.43;;
37087;SDS011;23002;52.676;6.432;2024-03-08T08:42:55;22.10;;;11.50;;
37087;SDS011;23002;52.676;6.432;2024-03-08T08:45:23;19.27;;;11.10;;
37087;SDS011;23002;52.676;6.432;2024-03-08T08:47:52;23.95;;;10.75;;
37087;SDS011;23002;52.676;6.432;2024-03-08T08:50:21;25.00;;;12.07;;
37087;SDS011;23002;52.676;6.432;2024-03-08T08:55:20;22.10;;;11.77;;
37087;SDS011;23002;52.676;6.432;2024-03-08T08:57:51;27.13;;;12.77;;
37087;SDS011;23002;52.676;6.432;2024-03-08T09:00:19;20.00;;;11.80;;
37087;SDS011;23002;52.676;6.432;2024-03-08T09:02:47;24.90;;;13.18;;
37087;SDS011;23002;52.676;6.432;2024-03-08T09:05:15;25.52;;;13.18;;
37087;SDS011;23002;52.676;6.432;2024-03-08T09:07:43;19.63;;;11.77;;
37087;SDS011;23002;52.676;6.432;2024-03-08T09:10:11;22.65;;;12.10;;
37087;SDS011;23002;52.676;6.432;2024-03-08T09:12:43;25.42;;;12.98;;
37087;SDS011;23002;52.676;6.432;2024-03-08T09:15:11;26.85;;;12.80;;
37087;SDS011;23002;52.676;6.432;2024-03-08T09:17:39;27.00;;;13.23;;
37087;SDS011;23002;52.676;6.432;2024-03-08T09:20:07;22.48;;;11.50;;
37087;SDS011;23002;52.676;6.432;2024-03-08T09:22:44;24.42;;;12.48;;
37087;SDS011;23002;52.676;6.432;2024-03-08T09:25:15;24.25;;;12.65;;
37087;SDS011;23002;52.676;6.432;2024-03-08T09:27:42;24.50;;;12.02;;
37087;SDS011;23002;52.676;6.432;2024-03-08T09:30:10;22.95;;;12.75;;
37087;SDS011;23002;52.676;6.432;2024-03-08T09:32:39;20.95;;;12.75;;
37087;SDS011;23002;52.676;6.432;2024-03-08T09:35:07;23.83;;;12.55;;
37087;SDS011;23002;52.676;6.432;2024-03-08T09:37:37;24.52;;;13.40;;
37087;SDS011;23002;52.676;6.432;2024-03-08T09:40:05;24.73;;;12.55;;
37087;SDS011;23002;52.676;6.432;2024-03-08T09:42:36;24.25;;;12.88;;
37087;SDS011;23002;52.676;6.432;2024-03-08T09:45:10;24.33;;;12.63;;
37087;SDS011;23002;52.676;6.432;2024-03-08T09:47:41;24.77;;;12.35;;
37087;SDS011;23002;52.676;6.432;2024-03-08T09:50:09;24.55;;;12.80;;
37087;SDS011;23002;52.676;6.432;2024-03-08T09:52:39;21.75;;;12.55;;
37087;SDS011;23002;52.676;6.432;2024-03-08T09:55:07;25.27;;;13.48;;
37087;SDS011;23002;52.676;6.432;2024-03-08T09:57:34;24.02;;;11.93;;
37087;SDS011;23002;52.676;6.432;2024-03-08T10:00:03;23.73;;;12.70;;
37087;SDS011;23002;52.676;6.432;2024-03-08T10:02:45;23.52;;;12.40;;
37087;SDS011;23002;52.676;6.432;2024-03-08T10:05:14;25.17;;;12.65;;
37087;SDS011;23002;52.676;6.432;2024-03-08T10:07:42;28.17;;;12.80;;
37087;SDS011;23002;52.676;6.432;2024-03-08T10:10:09;23.88;;;13.00;;
37087;SDS011;23002;52.676;6.432;2024-03-08T10:12:38;23.50;;;12.57;;
37087;SDS011;23002;52.676;6.432;2024-03-08T10:15:07;23.45;;;12.02;;
37087;SDS011;23002;52.676;6.432;2024-03-08T10:17:35;22.63;;;12.23;;
37087;SDS011;23002;52.676;6.432;2024-03-08T10:20:02;23.42;;;12.82;;
37087;SDS011;23002;52.676;6.432;2024-03-08T10:22:31;21.42;;;12.48;;
37087;SDS011;23002;52.676;6.432;2024-03-08T10:24:58;26.15;;;13.25;;
37087;SDS011;23002;52.676;6.432;2024-03-08T10:27:27;25.73;;;12.55;;
37087;SDS011;23002;52.676;6.432;2024-03-08T10:29:54;24.95;;;13.00;;
37087;SDS011;23002;52.676;6.432;2024-03-08T10:32:23;26.38;;;14.18;;
37087;SDS011;23002;52.676;6.432;2024-03-08T10:34:50;22.83;;;12.77;;
37087;SDS011;23002;52.676;6.432;2024-03-08T10:37:19;23.98;;;13.25;;
37087;SDS011;23002;52.676;6.432;2024-03-08T10:39:59;22.33;;;13.05;;
37087;SDS011;23002;52.676;6.432;2024-03-08T10:42:40;25.50;;;12.75;;
37087;SDS011;23002;52.676;6.432;2024-03-08T10:47:40;25.67;;;13.10;;
37087;SDS011;23002;52.676;6.432;2024-03-08T10:50:11;24.95;;;13.15;;
37087;SDS011;23002;52.676;6.432;2024-03-08T10:52:43;23.85;;;13.13;;
37087;SDS011;23002;52.676;6.432;2024-03-08T10:55:10;23.35;;;13.02;;
37087;SDS011;23002;52.676;6.432;2024-03-08T10:57:39;24.35;;;12.32;;
37087;SDS011;23002;52.676;6.432;2024-03-08T11:00:08;26.08;;;12.93;;
37087;SDS011;23002;52.676;6.432;2024-03-08T11:02:38;23.60;;;13.35;;
37087;SDS011;23002;52.676;6.432;2024-03-08T11:05:09;25.20;;;12.98;;
37087;SDS011;23002;52.676;6.432;2024-03-08T11:07:42;23.10;;;13.25;;
37087;SDS011;23002;52.676;6.432;2024-03-08T11:10:18;23.08;;;11.45;;
37087;SDS011;23002;52.676;6.432;2024-03-08T11:12:46;23.90;;;13.10;;
37087;SDS011;23002;52.676;6.432;2024-03-08T11:15:14;27.80;;;13.75;;
37087;SDS011;23002;52.676;6.432;2024-03-08T11:17:46;24.77;;;13.63;;
37087;SDS011;23002;52.676;6.432;2024-03-08T11:20:18;26.20;;;13.63;;
37087;SDS011;23002;52.676;6.432;2024-03-08T11:22:55;21.55;;;12.98;;
37087;SDS011;23002;52.676;6.432;2024-03-08T11:25:33;22.60;;;12.27;;
37087;SDS011;23002;52.676;6.432;2024-03-08T11:28:17;23.48;;;13.02;;
37087;SDS011;23002;52.676;6.432;2024-03-08T11:31:31;21.38;;;12.38;;
37087;SDS011;23002;52.676;6.432;2024-03-08T11:33:34;25.52;;;12.45;;
37087;SDS011;23002;52.676;6.432;2024-03-08T11:36:02;22.63;;;12.43;;
37087;SDS011;23002;52.676;6.432;2024-03-08T11:38:36;24.45;;;13.05;;
37087;SDS011;23002;52.676;6.432;2024-03-08T11:41:07;23.85;;;12.30;;
37087;SDS011;23002;52.676;6.432;2024-03-08T11:43:34;27.90;;;13.60;;
37087;SDS011;23002;52.676;6.432;2024-03-08T11:46:08;25.70;;;14.18;;
37087;SDS011;23002;52.676;6.432;2024-03-08T11:48:36;22.38;;;13.07;;
37087;SDS011;23002;52.676;6.432;2024-03-08T11:51:04;21.67;;;12.20;;
37087;SDS011;23002;52.676;6.432;2024-03-08T11:53:32;26.45;;;12.88;;
37087;SDS011;23002;52.676;6.432;2024-03-08T11:56:06;22.95;;;13.00;;
37087;SDS011;23002;52.676;6.432;2024-03-08T11:58:34;21.60;;;11.73;;
37087;SDS011;23002;52.676;6.432;2024-03-08T12:01:04;21.95;;;11.43;;
37087;SDS011;23002;52.676;6.432;2024-03-08T12:03:32;23.42;;;13.00;;
37087;SDS011;23002;52.676;6.432;2024-03-08T12:06:04;22.95;;;13.27;;
37087;SDS011;23002;52.676;6.432;2024-03-08T12:08:32;23.02;;;13.05;;
37087;SDS011;23002;52.676;6.432;2024-03-08T12:10:59;23.20;;;12.32;;
37087;SDS011;23002;52.676;6.432;2024-03-08T12:13:27;25.67;;;12.43;;
37087;SDS011;23002;52.676;6.432;2024-03-08T12:15:58;19.92;;;11.88;;
37087;SDS011;23002;52.676;6.432;2024-03-08T12:18:26;24.08;;;12.15;;
37087;SDS011;23002;52.676;6.432;2024-03-08T12:21:07;24.27;;;13.05;;
37087;SDS011;23002;52.676;6.432;2024-03-08T12:23:35;21.27;;;11.70;;
37087;SDS011;23002;52.676;6.432;2024-03-08T12:26:12;22.80;;;11.38;;
37087;SDS011;23002;52.676;6.432;2024-03-08T12:28:40;22.98;;;11.80;;
37087;SDS011;23002;52.676;6.432;2024-03-08T12:31:13;19.35;;;11.75;;
37087;SDS011;23002;52.676;6.432;2024-03-08T12:33:53;20.23;;;11.63;;
37087;SDS011;23002;52.676;6.432;2024-03-08T12:36:23;20.73;;;11.55;;
37087;SDS011;23002;52.676;6.432;2024-03-08T12:38:50;20.67;;;11.52;;
37087;SDS011;23002;52.676;6.432;2024-03-08T12:41:18;21.98;;;11.35;;
37087;SDS011;23002;52.676;6.432;2024-03-08T12:43:46;21.65;;;12.15;;
37087;SDS011;23002;52.676;6.432;2024-03-08T12:46:17;22.38;;;11.75;;
37087;SDS011;23002;52.676;6.432;2024-03-08T12:48:47;19.85;;;11.98;;
37087;SDS011;23002;52.676;6.432;2024-03-08T12:51:15;21.15;;;11.25;;
37087;SDS011;23002;52.676;6.432;2024-03-08T12:53:44;19.75;;;11.60;;
37087;SDS011;23002;52.676;6.432;2024-03-08T12:56:19;18.73;;;10.45;;
37087;SDS011;23002;52.676;6.432;2024-03-08T12:58:55;22.77;;;11.65;;
37087;SDS011;23002;52.676;6.432;2024-03-08T13:01:23;20.27;;;11.95;;
37087;SDS011;23002;52.676;6.432;2024-03-08T13:03:50;22.20;;;11.00;;
37087;SDS011;23002;52.676;6.432;2024-03-08T13:06:17;24.45;;;12.30;;
37087;SDS011;23002;52.676;6.432;2024-03-08T13:08:45;20.20;;;11.02;;
37087;SDS011;23002;52.676;6.432;2024-03-08T13:11:14;23.13;;;12.25;;
37087;SDS011;23002;52.676;6.432;2024-03-08T13:13:43;20.98;;;11.95;;
37087;SDS011;23002;52.676;6.432;2024-03-08T13:16:11;19.65;;;10.02;;
37087;SDS011;23002;52.676;6.432;2024-03-08T13:18:41;21.77;;;12.30;;
37087;SDS011;23002;52.676;6.432;2024-03-08T13:21:09;21.23;;;11.68;;
37087;SDS011;23002;52.676;6.432;2024-03-08T13:23:37;19.25;;;10.85;;
37087;SDS011;23002;52.676;6.432;2024-03-08T13:26:07;20.70;;;12.13;;
37087;SDS011;23002;52.676;6.432;2024-03-08T13:28:35;22.77;;;11.45;;
37087;SDS011;23002;52.676;6.432;2024-03-08T13:31:04;22.15;;;11.18;;
37087;SDS011;23002;52.676;6.432;2024-03-08T13:33:36;20.77;;;10.32;;
37087;SDS011;23002;52.676;6.432;2024-03-08T13:36:05;20.90;;;11.48;;
37087;SDS011;23002;52.676;6.432;2024-03-08T13:38:44;20.50;;;11.00;;
37087;SDS011;23002;52.676;6.432;2024-03-08T13:41:11;22.88;;;12.35;;
37087;SDS011;23002;52.676;6.432;2024-03-08T13:43:41;20.08;;;11.15;;
37087;SDS011;23002;52.676;6.432;2024-03-08T13:46:09;20.05;;;11.23;;
37087;SDS011;23002;52.676;6.432;2024-03-08T13:48:37;20.30;;;11.07;;
37087;SDS011;23002;52.676;6.432;2024-03-08T13:51:04;23.05;;;12.10;;
37087;SDS011;23002;52.676;6.432;2024-03-08T13:53:32;21.83;;;11.68;;
37087;SDS011;23002;52.676;6.432;2024-03-08T13:56:03;20.77;;;11.15;;
37087;SDS011;23002;52.676;6.432;2024-03-08T13:58:31;20.33;;;11.70;;
37087;SDS011;23002;52.676;6.432;2024-03-08T14:00:58;21.70;;;11.32;;
37087;SDS011;23002;52.676;6.432;2024-03-08T14:03:27;22.08;;;11.25;;
37087;SDS011;23002;52.676;6.432;2024-03-08T14:05:54;23.23;;;12.68;;
37087;SDS011;23002;52.676;6.432;2024-03-08T14:08:22;21.13;;;11.48;;
37087;SDS011;23002;52.676;6.432;2024-03-08T14:10:51;22.55;;;11.25;;
37087;SDS011;23002;52.676;6.432;2024-03-08T14:13:20;24.05;;;12.60;;
37087;SDS011;23002;52.676;6.432;2024-03-08T14:15:47;19.70;;;10.07;;
37087;SDS011;23002;52.676;6.432;2024-03-08T14:18:15;20.88;;;10.80;;
37087;SDS011;23002;52.676;6.432;2024-03-08T14:20:43;24.25;;;12.23;;
37087;SDS011;23002;52.676;6.432;2024-03-08T14:23:10;24.10;;;14.23;;
37087;SDS011;23002;52.676;6.432;2024-03-08T14:25:39;23.88;;;13.07;;
37087;SDS011;23002;52.676;6.432;2024-03-08T14:28:06;19.75;;;11.82;;
37087;SDS011;23002;52.676;6.432;2024-03-08T14:30:34;22.10;;;11.55;;
37087;SDS011;23002;52.676;6.432;2024-03-08T14:33:02;18.25;;;10.10;;
37087;SDS011;23002;52.676;6.432;2024-03-08T14:35:32;20.88;;;11.75;;
37087;SDS011;23002;52.676;6.432;2024-03-08T14:38:00;22.73;;;11.77;;
37087;SDS011;23002;52.676;6.432;2024-03-08T14:40:28;22.67;;;11.88;;